createdAt,value
2022-10-01T00:01:00.234Z,12.00
2022-10-01T00:03:29.457Z,12.05
2022-10-01T00:06:00.964Z,12.04
2022-10-01T00:08:28.570Z,12.07
2022-10-01T00:10:55.954Z,12.05
2022-10-01T00:13:23.343Z,12.06
2022-10-01T00:15:52.004Z,12.05
2022-10-01T00:18:19.452Z,12.03
2022-10-01T00:20:46.719Z,12.02
2022-10-01T00:23:14.857Z,12.05
2022-10-01T00:25:42.182Z,12.09
2022-10-01T00:28:09.524Z,12.10
2022-10-01T00:30:40.290Z,12.07
2022-10-01T00:33:09.222Z,12.06
2022-10-01T00:35:36.368Z,12.07
2022-10-01T00:38:03.587Z,12.09
2022-10-01T00:40:31.175Z,12.05
2022-10-01T00:42:58.393Z,12.05
2022-10-01T00:45:25.686Z,12.09
2022-10-01T00:47:56.652Z,12.08
2022-10-01T00:50:28.997Z,12.06
2022-10-01T00:53:00.432Z,12.06
2022-10-01T00:55:32.767Z,12.09
2022-10-01T00:58:00.895Z,12.10
2022-10-01T01:00:28.222Z,12.11
2022-10-01T01:02:55.646Z,12.15
2022-10-01T01:05:23.248Z,12.15
2022-10-01T01:07:53.460Z,12.15
2022-10-01T01:10:29.816Z,12.13
2022-10-01T01:13:11.404Z,12.14
2022-10-01T01:15:45.835Z,12.15
2022-10-01T01:18:20.809Z,12.16
2022-10-01T01:21:06.616Z,12.18
2022-10-01T01:24:03.515Z,12.21
2022-10-01T01:26:38.665Z,12.19
2022-10-01T01:29:13.479Z,12.26
2022-10-01T01:31:45.846Z,12.23
2022-10-01T01:34:18.705Z,12.30
2022-10-01T01:36:50.318Z,12.30
2022-10-01T01:39:19.897Z,12.35
2022-10-01T01:41:51.530Z,12.31
2022-10-01T01:44:25.939Z,12.37
2022-10-01T01:46:55.440Z,12.42
2022-10-01T01:49:23.693Z,12.40
2022-10-01T01:51:56.788Z,12.36
2022-10-01T01:54:24.174Z,12.33
2022-10-01T01:56:52.514Z,12.17
2022-10-01T01:59:21.091Z,12.07
2022-10-01T02:01:48.424Z,11.95
2022-10-01T02:04:23.724Z,11.83
2022-10-01T02:07:11.556Z,11.73
2022-10-01T02:09:50.370Z,11.56
2022-10-01T02:12:27.012Z,11.49
2022-10-01T02:15:02.125Z,11.48
2022-10-01T02:17:38.972Z,11.44
2022-10-01T02:20:12.336Z,11.48
2022-10-01T02:22:44.059Z,11.38
2022-10-01T02:25:15.454Z,11.41
2022-10-01T02:27:48.500Z,11.35
2022-10-01T02:30:17.770Z,11.29
2022-10-01T02:32:49.071Z,11.21
2022-10-01T02:35:18.945Z,11.21
2022-10-01T02:37:50.880Z,11.12
2022-10-01T02:40:23.378Z,11.15
2022-10-01T02:42:53.677Z,11.12
2022-10-01T02:45:24.575Z,11.11
2022-10-01T02:47:56.444Z,11.02
2022-10-01T02:50:27.193Z,11.10
2022-10-01T02:53:00.790Z,11.11
2022-10-01T02:55:31.478Z,11.08
2022-10-01T02:57:58.736Z,11.01
2022-10-01T03:00:27.656Z,11.10
2022-10-01T03:02:54.965Z,11.08
2022-10-01T03:05:22.460Z,11.03
2022-10-01T03:07:49.944Z,11.01
2022-10-01T03:10:17.476Z,11.04
2022-10-01T03:12:45.427Z,10.99
2022-10-01T03:15:13.953Z,11.07
2022-10-01T03:17:42.584Z,11.04
2022-10-01T03:20:10.860Z,11.05
2022-10-01T03:22:38.388Z,10.98
2022-10-01T03:25:06.226Z,10.97
2022-10-01T03:27:33.499Z,11.00
2022-10-01T03:30:00.672Z,10.93
2022-10-01T03:32:27.952Z,10.94
2022-10-01T03:34:56.684Z,10.91
2022-10-01T03:37:23.920Z,10.91
2022-10-01T03:39:51.310Z,10.88
2022-10-01T03:42:18.600Z,10.90
2022-10-01T03:44:45.796Z,10.87
2022-10-01T03:47:13.169Z,10.90
2022-10-01T03:49:40.381Z,10.82
2022-10-01T03:52:09.000Z,10.80
2022-10-01T03:54:36.244Z,10.79
2022-10-01T03:57:03.677Z,10.78
2022-10-01T03:59:30.935Z,10.76
2022-10-01T04:01:58.251Z,10.73
2022-10-01T04:04:25.571Z,10.72
2022-10-01T04:06:52.789Z,10.68
2022-10-01T04:09:21.381Z,10.68
2022-10-01T04:11:48.565Z,10.68
2022-10-01T04:14:15.756Z,10.69
2022-10-01T04:16:43.130Z,10.68
2022-10-01T04:19:10.364Z,10.68
2022-10-01T04:21:37.833Z,10.70
2022-10-01T04:24:05.393Z,10.68
2022-10-01T04:26:33.950Z,10.66
2022-10-01T04:29:01.350Z,10.65
2022-10-01T04:31:28.594Z,10.64
2022-10-01T04:33:57.354Z,10.63
2022-10-01T04:36:25.738Z,10.60
2022-10-01T04:38:57.977Z,10.60
2022-10-01T04:41:27.032Z,10.62
2022-10-01T04:43:57.097Z,10.61
2022-10-01T04:46:24.490Z,10.61
2022-10-01T04:48:51.698Z,10.64
2022-10-01T04:51:18.911Z,10.66
2022-10-01T04:53:46.160Z,10.65
2022-10-01T04:56:13.456Z,10.65
2022-10-01T04:58:40.707Z,10.64
2022-10-01T05:01:09.368Z,10.65
2022-10-01T05:03:36.555Z,10.69
2022-10-01T05:06:03.954Z,10.77
2022-10-01T05:08:31.217Z,10.76
2022-10-01T05:10:59.192Z,10.76
2022-10-01T05:13:26.394Z,10.76
2022-10-01T05:15:53.748Z,10.75
2022-10-01T05:18:22.339Z,10.80
2022-10-01T05:20:49.659Z,10.81
2022-10-01T05:23:16.929Z,10.83
2022-10-01T05:25:44.103Z,10.89
2022-10-01T05:28:11.342Z,10.93
2022-10-01T05:30:38.620Z,10.93
2022-10-01T05:33:05.859Z,10.92
2022-10-01T05:35:34.553Z,10.90
2022-10-01T05:38:02.456Z,10.91
2022-10-01T05:40:30.472Z,10.89
2022-10-01T05:42:58.929Z,10.90
2022-10-01T05:45:27.776Z,10.93
2022-10-01T05:47:59.835Z,10.91
2022-10-01T05:50:27.835Z,10.89
2022-10-01T05:52:56.381Z,10.87
2022-10-01T05:55:23.855Z,10.85
2022-10-01T05:57:55.911Z,10.82
2022-10-01T06:00:23.510Z,10.83
2022-10-01T06:02:51.213Z,10.81
2022-10-01T06:05:18.650Z,10.81
2022-10-01T06:07:45.892Z,10.82
2022-10-01T06:10:14.586Z,10.83
2022-10-01T06:12:41.816Z,10.82
2022-10-01T06:15:10.228Z,10.81
2022-10-01T06:17:37.760Z,10.82
2022-10-01T06:20:05.784Z,10.80
2022-10-01T06:22:33.103Z,10.80
2022-10-01T06:25:00.519Z,10.81
2022-10-01T06:27:29.170Z,10.81
2022-10-01T06:29:56.423Z,10.82
2022-10-01T06:32:23.736Z,10.80
2022-10-01T06:34:51.033Z,10.80
2022-10-01T06:37:18.270Z,10.77
2022-10-01T06:39:45.542Z,10.76
2022-10-01T06:42:12.849Z,10.80
2022-10-01T06:44:41.561Z,10.78
2022-10-01T06:47:08.978Z,10.82
2022-10-01T06:49:36.255Z,10.80
2022-10-01T06:52:03.533Z,10.82
2022-10-01T06:54:30.701Z,10.82
2022-10-01T06:56:58.082Z,10.85
2022-10-01T06:59:25.484Z,10.87
2022-10-01T07:01:56.341Z,10.91
2022-10-01T07:04:23.937Z,10.93
2022-10-01T07:06:51.276Z,10.94
2022-10-01T07:09:18.462Z,10.93
2022-10-01T07:11:45.749Z,10.97
2022-10-01T07:14:12.980Z,11.01
2022-10-01T07:16:40.308Z,11.02
2022-10-01T07:19:09.157Z,11.03
2022-10-01T07:21:36.822Z,11.04
2022-10-01T07:24:04.736Z,11.05
2022-10-01T07:26:31.966Z,11.10
2022-10-01T07:28:59.156Z,11.10
2022-10-01T07:31:26.522Z,11.13
2022-10-01T07:33:57.058Z,11.10
2022-10-01T07:36:25.625Z,11.16
2022-10-01T07:38:52.857Z,11.19
2022-10-01T07:41:20.061Z,11.22
2022-10-01T07:43:47.273Z,11.28
2022-10-01T07:46:14.531Z,11.27
2022-10-01T07:48:41.884Z,11.32
2022-10-01T07:51:09.318Z,11.35
2022-10-01T07:53:37.934Z,11.42
2022-10-01T07:56:05.687Z,11.44
2022-10-01T07:58:33.004Z,11.50
2022-10-01T08:01:03.531Z,11.58
2022-10-01T08:03:30.831Z,11.61
2022-10-01T08:05:58.044Z,11.70
2022-10-01T08:08:25.385Z,11.75
2022-10-01T08:10:53.986Z,11.82
2022-10-01T08:13:21.376Z,11.88
2022-10-01T08:15:48.689Z,11.91
2022-10-01T08:18:16.025Z,11.93
2022-10-01T08:20:43.333Z,11.98
2022-10-01T08:23:12.671Z,11.99
2022-10-01T08:25:40.590Z,12.09
2022-10-01T08:28:10.676Z,12.17
2022-10-01T08:30:39.781Z,12.19
2022-10-01T08:33:09.431Z,12.20
2022-10-01T08:35:38.738Z,12.27
2022-10-01T08:38:06.565Z,12.28
2022-10-01T08:40:35.919Z,12.37
2022-10-01T08:43:04.992Z,12.41
2022-10-01T08:45:40.949Z,12.49
2022-10-01T08:48:16.243Z,12.52
2022-10-01T08:50:50.897Z,12.54
2022-10-01T08:53:28.537Z,12.62
2022-10-01T08:55:57.320Z,12.78
2022-10-01T08:58:29.239Z,12.85
2022-10-01T09:00:58.449Z,12.86
2022-10-01T09:03:29.746Z,13.07
2022-10-01T09:06:10.108Z,12.91
2022-10-01T09:09:02.701Z,12.93
2022-10-01T09:11:42.933Z,12.91
2022-10-01T09:14:37.573Z,12.98
2022-10-01T09:17:13.896Z,13.15
2022-10-01T09:19:58.843Z,13.39
2022-10-01T09:22:36.641Z,13.56
2022-10-01T09:25:12.214Z,13.64
2022-10-01T09:27:40.014Z,13.66
2022-10-01T09:30:12.729Z,13.99
2022-10-01T09:32:45.246Z,14.14
2022-10-01T09:35:27.120Z,14.13
2022-10-01T09:37:57.271Z,14.21
2022-10-01T09:40:33.306Z,14.66
2022-10-01T09:43:00.930Z,14.92
2022-10-01T09:45:28.207Z,14.86
2022-10-01T09:48:04.370Z,15.06
2022-10-01T09:50:39.899Z,15.09
2022-10-01T09:53:13.928Z,14.86
2022-10-01T09:55:44.023Z,15.20
2022-10-01T09:58:16.289Z,15.23
2022-10-01T10:00:44.142Z,15.55
2022-10-01T10:03:23.142Z,15.68
2022-10-01T10:05:50.809Z,15.26
2022-10-01T10:08:25.544Z,15.67
2022-10-01T10:10:58.428Z,15.80
2022-10-01T10:13:30.861Z,16.41
2022-10-01T10:16:00.941Z,16.92
2022-10-01T10:18:33.007Z,16.46
2022-10-01T10:21:04.531Z,16.54
2022-10-01T10:23:31.911Z,16.96
2022-10-01T10:26:01.012Z,17.08
2022-10-01T10:28:30.033Z,18.04
2022-10-01T10:30:57.952Z,17.14
2022-10-01T10:33:25.922Z,17.08
2022-10-01T10:36:00.431Z,18.49
2022-10-01T10:38:32.580Z,18.05
2022-10-01T10:45:16.229Z,17.91
2022-10-01T10:47:46.675Z,18.13
2022-10-01T10:50:27.858Z,18.36
2022-10-01T10:52:56.741Z,18.23
2022-10-01T10:55:26.844Z,17.25
2022-10-01T10:57:57.491Z,17.08
2022-10-01T11:00:26.101Z,17.32
2022-10-01T11:02:58.767Z,17.56
2022-10-01T11:05:28.580Z,18.37
2022-10-01T11:07:59.373Z,19.78
2022-10-01T11:10:41.514Z,18.94
2022-10-01T11:13:41.278Z,18.82
2022-10-01T11:16:32.672Z,18.20
2022-10-01T11:19:12.461Z,18.13
2022-10-01T11:21:56.278Z,18.87
2022-10-01T11:24:39.504Z,19.34
2022-10-01T11:27:12.205Z,19.68
2022-10-01T11:29:54.274Z,19.95
2022-10-01T11:32:28.500Z,21.20
2022-10-01T11:35:08.271Z,21.46
2022-10-01T11:37:45.047Z,20.48
2022-10-01T11:40:19.952Z,19.27
2022-10-01T11:42:48.777Z,19.17
2022-10-01T11:45:21.205Z,19.31
2022-10-01T11:47:52.190Z,18.70
2022-10-01T11:50:21.957Z,18.57
2022-10-01T11:52:53.769Z,18.06
2022-10-01T11:55:26.392Z,18.14
2022-10-01T11:57:59.858Z,17.93
2022-10-01T12:00:27.705Z,17.91
2022-10-01T12:02:59.434Z,18.09
2022-10-01T12:05:30.762Z,19.28
2022-10-01T12:08:04.089Z,20.48
2022-10-01T12:10:37.968Z,20.51
2022-10-01T12:13:13.067Z,20.13
2022-10-01T12:15:47.846Z,19.05
2022-10-01T12:18:23.096Z,18.73
2022-10-01T12:20:53.383Z,18.18
2022-10-01T12:23:24.749Z,18.11
2022-10-01T12:26:02.506Z,17.67
2022-10-01T12:28:35.199Z,17.53
2022-10-01T12:31:12.485Z,16.92
2022-10-01T12:34:04.337Z,16.72
2022-10-01T12:36:41.576Z,16.71
2022-10-01T12:39:26.844Z,16.65
2022-10-01T12:42:05.345Z,15.03
2022-10-01T12:44:46.468Z,13.87
2022-10-01T12:47:35.474Z,13.63
2022-10-01T12:50:17.451Z,13.79
2022-10-01T12:52:54.686Z,14.92
2022-10-01T12:55:38.381Z,15.20
2022-10-01T12:58:15.536Z,15.05
2022-10-01T13:00:50.758Z,15.11
2022-10-01T13:03:47.068Z,14.90
2022-10-01T13:06:24.916Z,14.57
2022-10-01T13:09:01.386Z,14.55
2022-10-01T13:11:48.681Z,14.41
2022-10-01T13:14:19.157Z,14.41
2022-10-01T13:16:53.675Z,14.53
2022-10-01T13:19:27.966Z,14.51
2022-10-01T13:22:04.583Z,15.18
2022-10-01T13:24:38.799Z,16.64
2022-10-01T13:27:13.160Z,17.31
2022-10-01T13:29:55.342Z,18.28
2022-10-01T13:32:31.613Z,18.19
2022-10-01T13:35:00.849Z,18.35
2022-10-01T13:37:33.395Z,18.23
2022-10-01T13:40:01.823Z,18.10
2022-10-01T13:42:32.940Z,18.97
2022-10-01T13:45:05.670Z,19.19
2022-10-01T13:47:36.608Z,18.68
2022-10-01T13:50:07.338Z,19.04
2022-10-01T13:52:34.893Z,19.63
2022-10-01T13:55:02.376Z,19.73
2022-10-01T13:57:33.431Z,19.86
2022-10-01T14:00:19.086Z,19.60
2022-10-01T14:03:00.556Z,19.58
2022-10-01T14:05:34.603Z,19.45
2022-10-01T14:08:14.141Z,20.12
2022-10-01T14:10:47.759Z,18.65
2022-10-01T14:13:18.423Z,19.44
2022-10-01T14:15:51.091Z,18.55
2022-10-01T14:18:22.062Z,19.74
2022-10-01T14:20:58.075Z,20.02
2022-10-01T14:23:32.450Z,20.42
2022-10-01T14:26:06.564Z,19.99
2022-10-01T14:28:43.704Z,19.99
2022-10-01T14:31:19.263Z,19.66
2022-10-01T14:34:03.005Z,20.22
2022-10-01T14:36:33.332Z,20.74
2022-10-01T14:39:17.307Z,20.71
2022-10-01T14:41:45.400Z,20.16
2022-10-01T14:44:21.869Z,19.67
2022-10-01T14:46:51.189Z,19.08
2022-10-01T14:49:25.028Z,18.37
2022-10-01T14:51:56.300Z,17.72
2022-10-01T14:54:24.174Z,17.43
2022-10-01T14:56:52.530Z,17.28
2022-10-01T14:59:29.748Z,17.13
2022-10-01T15:02:01.200Z,17.13
2022-10-01T15:04:28.571Z,17.54
2022-10-01T15:07:04.017Z,17.84
2022-10-01T15:09:33.784Z,18.84
2022-10-01T15:12:02.258Z,19.51
2022-10-01T15:14:29.636Z,20.64
2022-10-01T15:17:02.662Z,20.03
2022-10-01T15:19:30.718Z,18.51
2022-10-01T15:22:00.715Z,17.72
2022-10-01T15:24:37.093Z,17.43
2022-10-01T15:27:05.088Z,16.95
2022-10-01T15:29:32.633Z,16.77
2022-10-01T15:32:02.644Z,16.53
2022-10-01T15:34:30.451Z,16.28
2022-10-01T15:36:59.239Z,16.27
2022-10-01T15:39:31.244Z,16.32
2022-10-01T15:42:01.530Z,17.09
2022-10-01T15:44:43.443Z,16.69
2022-10-01T15:47:32.924Z,16.57
2022-10-01T15:50:18.353Z,16.50
2022-10-01T15:52:49.629Z,16.22
2022-10-01T15:55:18.798Z,16.23
2022-10-01T15:57:46.003Z,17.16
2022-10-01T16:00:21.538Z,17.70
2022-10-01T16:02:51.016Z,17.32
2022-10-01T16:05:20.709Z,17.64
2022-10-01T16:07:52.243Z,17.79
2022-10-01T16:10:34.335Z,17.39
2022-10-01T16:13:35.411Z,17.23
2022-10-01T16:16:07.901Z,17.24
2022-10-01T16:18:36.673Z,17.44
2022-10-01T16:21:05.507Z,17.56
2022-10-01T16:23:34.564Z,17.29
2022-10-01T16:26:02.023Z,16.45
2022-10-01T16:28:31.644Z,16.12
2022-10-01T16:30:59.845Z,15.78
2022-10-01T16:33:27.068Z,15.55
2022-10-01T16:36:08.381Z,15.58
2022-10-01T16:38:35.632Z,15.54
2022-10-01T16:41:02.971Z,15.24
2022-10-01T16:43:30.347Z,15.10
2022-10-01T16:45:57.684Z,14.97
2022-10-01T16:48:25.035Z,14.88
2022-10-01T16:50:52.430Z,14.73
2022-10-01T16:53:21.064Z,14.66
2022-10-01T16:55:48.457Z,14.61
2022-10-01T16:58:15.595Z,14.59
2022-10-01T17:00:43.042Z,14.44
2022-10-01T17:03:15.633Z,14.38
2022-10-01T17:05:43.343Z,14.32
2022-10-01T17:08:10.651Z,14.30
2022-10-01T17:10:43.168Z,14.19
2022-10-01T17:13:11.228Z,14.18
2022-10-01T17:15:39.122Z,14.13
2022-10-01T17:18:06.849Z,14.04
2022-10-01T17:20:34.201Z,14.00
2022-10-01T17:23:01.668Z,13.92
2022-10-01T17:25:31.394Z,13.88
2022-10-01T17:28:01.857Z,13.96
2022-10-01T17:30:29.427Z,13.80
2022-10-01T17:32:57.808Z,13.78
2022-10-01T17:35:25.619Z,13.73
2022-10-01T17:37:52.893Z,13.64
2022-10-01T17:40:20.433Z,13.64
2022-10-01T17:42:47.680Z,13.64
2022-10-01T17:45:16.428Z,13.60
2022-10-01T17:47:44.386Z,13.55
2022-10-01T17:50:12.227Z,13.47
2022-10-01T17:52:39.567Z,13.42
2022-10-01T17:55:07.730Z,13.39
2022-10-01T17:57:35.043Z,13.32
2022-10-01T18:00:02.395Z,13.25
2022-10-01T18:02:42.589Z,13.22
2022-10-01T18:05:11.295Z,13.21
2022-10-01T18:07:38.768Z,13.18
2022-10-01T18:10:07.866Z,13.19
2022-10-01T18:12:35.294Z,13.22
2022-10-01T18:15:03.092Z,13.27
2022-10-01T18:17:32.338Z,13.24
2022-10-01T18:20:01.320Z,13.27
2022-10-01T18:22:28.922Z,13.22
2022-10-01T18:24:56.200Z,13.28
2022-10-01T18:27:23.629Z,13.28
2022-10-01T18:29:50.991Z,13.22
2022-10-01T18:32:20.705Z,13.12
2022-10-01T18:34:53.791Z,13.03
2022-10-01T18:37:37.803Z,12.98
2022-10-01T18:40:12.352Z,12.89
2022-10-01T18:42:46.333Z,12.94
2022-10-01T18:45:16.841Z,12.96
2022-10-01T18:47:57.624Z,12.93
2022-10-01T18:50:33.835Z,12.77
2022-10-01T18:53:19.575Z,12.69
2022-10-01T18:56:01.429Z,12.71
2022-10-01T18:58:47.334Z,12.64
2022-10-01T19:01:28.987Z,12.64
2022-10-01T19:04:16.416Z,12.62
2022-10-01T19:07:05.687Z,12.61
2022-10-01T19:09:44.804Z,12.63
2022-10-01T19:12:37.493Z,12.64
2022-10-01T19:15:18.062Z,12.62
2022-10-01T19:17:56.298Z,12.66
2022-10-01T19:20:37.796Z,12.67
2022-10-01T19:23:18.478Z,12.69
2022-10-01T19:25:50.961Z,12.66
2022-10-01T19:28:33.272Z,12.63
2022-10-01T19:31:11.379Z,12.55
2022-10-01T19:33:46.577Z,12.55
2022-10-01T19:36:22.857Z,12.51
2022-10-01T19:38:53.184Z,12.54
2022-10-01T19:41:27.479Z,12.53
2022-10-01T19:44:00.094Z,12.54
2022-10-01T19:46:34.963Z,12.58
2022-10-01T19:49:13.112Z,12.61
2022-10-01T19:51:45.122Z,12.64
2022-10-01T19:54:15.780Z,12.64
2022-10-01T19:56:48.520Z,12.70
2022-10-01T19:59:17.655Z,12.61
2022-10-01T20:01:51.704Z,12.65
2022-10-01T20:04:23.098Z,12.63
2022-10-01T20:06:57.139Z,12.67
2022-10-01T20:09:28.898Z,12.67
2022-10-01T20:12:05.211Z,12.69
2022-10-01T20:14:47.881Z,12.72
2022-10-01T20:17:23.197Z,12.61
2022-10-01T20:20:00.869Z,12.55
2022-10-01T20:22:36.426Z,12.49
2022-10-01T20:25:14.109Z,12.47
2022-10-01T20:27:56.848Z,12.46
2022-10-01T20:30:24.149Z,12.43
2022-10-01T20:33:05.841Z,12.44
2022-10-01T20:35:41.921Z,12.39
2022-10-01T20:38:14.550Z,12.42
2022-10-01T20:40:46.643Z,12.35
2022-10-01T20:43:19.431Z,12.31
2022-10-01T20:45:50.275Z,12.30
2022-10-01T20:48:20.049Z,12.30
2022-10-01T20:50:50.789Z,12.32
2022-10-01T20:53:27.051Z,12.34
2022-10-01T20:55:58.351Z,12.31
2022-10-01T20:58:29.577Z,12.28
2022-10-01T21:01:06.165Z,12.31
2022-10-01T21:03:38.647Z,12.29
2022-10-01T21:06:11.897Z,12.20
2022-10-01T21:08:46.837Z,12.25
2022-10-01T21:11:21.689Z,12.28
2022-10-01T21:13:58.998Z,12.28
2022-10-01T21:16:53.636Z,12.24
2022-10-01T21:19:30.904Z,12.22
2022-10-01T21:22:10.855Z,12.25
2022-10-01T21:24:51.746Z,12.28
2022-10-01T21:27:33.199Z,12.33
2022-10-01T21:30:10.441Z,12.33
2022-10-01T21:33:02.715Z,12.34
2022-10-01T21:35:39.236Z,12.36
2022-10-01T21:38:13.700Z,12.38
2022-10-01T21:41:05.866Z,12.34
2022-10-01T21:43:56.562Z,12.34
2022-10-01T21:46:35.884Z,12.35
2022-10-01T21:49:09.245Z,12.38
2022-10-01T21:51:52.143Z,12.39
2022-10-01T21:54:44.749Z,12.39
2022-10-01T21:57:27.927Z,12.47
2022-10-01T22:00:08.441Z,12.48
2022-10-01T22:02:47.500Z,12.48
2022-10-01T22:05:22.094Z,12.46
2022-10-01T22:07:56.160Z,12.45
2022-10-01T22:10:28.290Z,12.47
2022-10-01T22:13:02.050Z,12.40
2022-10-01T22:15:35.394Z,12.36
2022-10-01T22:18:07.637Z,12.33
2022-10-01T22:20:35.249Z,12.35
2022-10-01T22:23:08.604Z,12.28
2022-10-01T22:25:42.279Z,12.31
2022-10-01T22:28:16.701Z,12.27
2022-10-01T22:30:46.518Z,12.24
2022-10-01T22:33:21.017Z,12.32
2022-10-01T22:35:52.889Z,12.25
2022-10-01T22:38:24.460Z,12.17
2022-10-01T22:40:58.365Z,12.19
2022-10-01T22:43:25.592Z,12.29
2022-10-01T22:46:09.916Z,12.29
2022-10-01T22:48:51.542Z,12.21
2022-10-01T22:51:31.586Z,12.29
2022-10-01T22:54:12.966Z,12.27
2022-10-01T22:56:49.582Z,12.30
2022-10-01T22:59:27.835Z,12.29
2022-10-01T23:02:04.480Z,12.22
2022-10-01T23:04:55.819Z,12.21
2022-10-01T23:07:32.464Z,12.23
2022-10-01T23:10:06.033Z,12.17
2022-10-01T23:12:42.829Z,12.19
2022-10-01T23:15:19.188Z,12.16
2022-10-01T23:17:57.142Z,12.16
2022-10-01T23:20:31.539Z,12.14
2022-10-01T23:23:20.656Z,12.31
2022-10-01T23:26:07.660Z,12.31
2022-10-01T23:28:48.245Z,12.39
2022-10-01T23:31:25.136Z,12.36
2022-10-01T23:34:04.789Z,12.31
2022-10-01T23:36:41.241Z,12.31
2022-10-01T23:39:34.332Z,12.31
2022-10-01T23:42:10.409Z,12.24
2022-10-01T23:44:42.885Z,12.27
2022-10-01T23:47:16.299Z,12.30
2022-10-01T23:49:50.738Z,12.30
2022-10-01T23:52:28.929Z,12.35
2022-10-01T23:55:01.898Z,12.52
2022-10-01T23:57:31.937Z,12.62
